Nearby METAR Reports

 

KMLP - Mullan Pass
Updated: Sat, 17-Aug-2019 7:53pm PDT
Clear
Clear
 Wind from SW
Wind: SW 6 mph , 9 km/h
Temperature: 52°F , 11°C
Dew Point: 39°F , 4°C
Humidity: 62%
Barometer: 29.98 inHg , 1015.2 hPa
Clouds: Clear
Visibility: 10 miles , 16 km
2019/08/18 02:53 KMLP 180253Z AUTO 23005KT 10SM CLR 11/04 A2998 RMK AO2 SLP080 T01110044 58007
KCOE - Coeur d Alene
Updated: Sat, 17-Aug-2019 7:56pm PDT
Clear
Clear
 Wind from calm
Wind: Calm
Temperature: 68°F , 20°C
Dew Point: 45°F , 7°C
Humidity: 43%
Barometer: 29.81 inHg , 1009.5 hPa
Clouds: Clear
Visibility: 10 miles , 16 km
2019/08/18 02:56 KCOE 180256Z AUTO 00000KT 10SM CLR 20/07 A2981 RMK AO2 SLP099 6//// T02000067 56009 PNO $
 
KLWS - Lewiston
Updated: Sat, 17-Aug-2019 7:56pm PDT
Clear
Clear
 Wind from WNW
Wind: WNW 7 mph , 11 km/h
Temperature: 77°F , 25°C
Dew Point: 46°F , 8°C
Humidity: 34%
Barometer: 29.80 inHg , 1009.1 hPa
Clouds: Clear
Visibility: 10 miles , 16 km
2019/08/18 02:56 KLWS 180256Z 30006KT 10SM CLR 25/08 A2980 RMK AO2 SLP083 T02500078 55006
KGEG - Spokane Intl
Updated: Sat, 17-Aug-2019 7:53pm PDT
Mostly Cloudy
Mostly Cloudy
 Wind from WSW
Wind: WSW 15 mph , 24 km/h
Temperature: 73°F , 23°C
Dew Point: 39°F , 4°C
Humidity: 29%
Barometer: 29.81 inHg , 1009.5 hPa
Clouds: Mostly Cloudy
Visibility: 10 miles , 16 km
Cloud details: Few Clouds 6500 ft
Few Clouds 15000 ft
Mostly Cloudy 22000 ft
2019/08/18 02:53 KGEG 180253Z 24013KT 10SM FEW065 FEW150 BKN220 23/04 A2981 RMK AO2 SLP083 ACSL DSNT N-NE T02330044 56007